sensor_id;sensor_type;location;lat;lon;timestamp;P1;durP1;ratioP1;P2;durP2;ratioP2
4819;SDS011;2424;49.696;6.630;2024-01-30T00:02:20;2.17;;;1.90;;
4819;SDS011;2424;49.696;6.630;2024-01-30T00:07:42;1.83;;;1.73;;
4819;SDS011;2424;49.696;6.630;2024-01-30T00:13:06;1.73;;;1.63;;
4819;SDS011;2424;49.696;6.630;2024-01-30T00:18:28;2.50;;;2.03;;
4819;SDS011;2424;49.696;6.630;2024-01-30T00:23:49;2.60;;;2.40;;
4819;SDS011;2424;49.696;6.630;2024-01-30T00:29:13;3.43;;;2.33;;
4819;SDS011;2424;49.696;6.630;2024-01-30T00:34:39;2.13;;;2.03;;
4819;SDS011;2424;49.696;6.630;2024-01-30T00:40:01;1.53;;;1.43;;
4819;SDS011;2424;49.696;6.630;2024-01-30T00:45:25;6.47;;;2.60;;
4819;SDS011;2424;49.696;6.630;2024-01-30T00:50:47;1.77;;;1.77;;
4819;SDS011;2424;49.696;6.630;2024-01-30T00:56:09;1.97;;;1.87;;
4819;SDS011;2424;49.696;6.630;2024-01-30T01:01:32;2.70;;;2.57;;
4819;SDS011;2424;49.696;6.630;2024-01-30T01:06:54;2.37;;;2.10;;
4819;SDS011;2424;49.696;6.630;2024-01-30T01:12:16;3.13;;;1.60;;
4819;SDS011;2424;49.696;6.630;2024-01-30T01:17:39;1.17;;;1.17;;
4819;SDS011;2424;49.696;6.630;2024-01-30T01:23:01;1.33;;;1.33;;
4819;SDS011;2424;49.696;6.630;2024-01-30T01:28:23;2.40;;;2.20;;
4819;SDS011;2424;49.696;6.630;2024-01-30T01:33:47;2.03;;;1.93;;
4819;SDS011;2424;49.696;6.630;2024-01-30T01:39:08;2.10;;;1.90;;
4819;SDS011;2424;49.696;6.630;2024-01-30T01:44:30;2.07;;;1.97;;
4819;SDS011;2424;49.696;6.630;2024-01-30T01:49:54;2.47;;;1.50;;
4819;SDS011;2424;49.696;6.630;2024-01-30T01:55:16;1.63;;;1.53;;
4819;SDS011;2424;49.696;6.630;2024-01-30T02:00:41;4.77;;;1.63;;
4819;SDS011;2424;49.696;6.630;2024-01-30T02:06:05;4.30;;;2.40;;
4819;SDS011;2424;49.696;6.630;2024-01-30T02:11:27;2.60;;;2.20;;
4819;SDS011;2424;49.696;6.630;2024-01-30T02:16:50;3.93;;;2.73;;
4819;SDS011;2424;49.696;6.630;2024-01-30T02:22:13;3.37;;;2.20;;
4819;SDS011;2424;49.696;6.630;2024-01-30T02:27:35;1.90;;;1.80;;
4819;SDS011;2424;49.696;6.630;2024-01-30T02:32:57;3.53;;;2.77;;
4819;SDS011;2424;49.696;6.630;2024-01-30T02:38:21;2.70;;;2.50;;
4819;SDS011;2424;49.696;6.630;2024-01-30T02:43:43;4.70;;;2.67;;
4819;SDS011;2424;49.696;6.630;2024-01-30T02:49:05;2.30;;;2.10;;
4819;SDS011;2424;49.696;6.630;2024-01-30T02:54:28;3.17;;;2.23;;
4819;SDS011;2424;49.696;6.630;2024-01-30T02:59:50;2.37;;;1.70;;
4819;SDS011;2424;49.696;6.630;2024-01-30T03:05:12;2.50;;;2.30;;
4819;SDS011;2424;49.696;6.630;2024-01-30T03:10:36;2.43;;;2.30;;
4819;SDS011;2424;49.696;6.630;2024-01-30T03:15:57;2.40;;;2.20;;
4819;SDS011;2424;49.696;6.630;2024-01-30T03:21:19;3.57;;;3.17;;
4819;SDS011;2424;49.696;6.630;2024-01-30T03:26:43;3.03;;;2.80;;
4819;SDS011;2424;49.696;6.630;2024-01-30T03:32:05;2.70;;;2.50;;
4819;SDS011;2424;49.696;6.630;2024-01-30T03:37:27;1.40;;;1.33;;
4819;SDS011;2424;49.696;6.630;2024-01-30T03:42:50;3.83;;;2.10;;
4819;SDS011;2424;49.696;6.630;2024-01-30T03:48:12;2.47;;;2.27;;
4819;SDS011;2424;49.696;6.630;2024-01-30T03:53:34;2.00;;;1.90;;
4819;SDS011;2424;49.696;6.630;2024-01-30T03:58:58;1.57;;;1.47;;
4819;SDS011;2424;49.696;6.630;2024-01-30T04:04:20;3.27;;;2.73;;
4819;SDS011;2424;49.696;6.630;2024-01-30T04:09:43;4.57;;;3.60;;
4819;SDS011;2424;49.696;6.630;2024-01-30T04:15:06;2.17;;;2.07;;
4819;SDS011;2424;49.696;6.630;2024-01-30T04:20:29;1.43;;;1.33;;
4819;SDS011;2424;49.696;6.630;2024-01-30T04:25:51;2.83;;;2.60;;
4819;SDS011;2424;49.696;6.630;2024-01-30T04:31:14;1.87;;;1.77;;
4819;SDS011;2424;49.696;6.630;2024-01-30T04:36:36;1.50;;;1.40;;
4819;SDS011;2424;49.696;6.630;2024-01-30T04:41:58;2.43;;;2.23;;
4819;SDS011;2424;49.696;6.630;2024-01-30T04:47:21;2.40;;;2.00;;
4819;SDS011;2424;49.696;6.630;2024-01-30T04:52:43;2.03;;;1.93;;
4819;SDS011;2424;49.696;6.630;2024-01-30T04:58:05;2.50;;;2.30;;
4819;SDS011;2424;49.696;6.630;2024-01-30T05:03:32;1.93;;;1.80;;
4819;SDS011;2424;49.696;6.630;2024-01-30T05:08:54;2.10;;;2.00;;
4819;SDS011;2424;49.696;6.630;2024-01-30T05:14:16;1.83;;;1.73;;
4819;SDS011;2424;49.696;6.630;2024-01-30T05:19:39;2.60;;;2.20;;
4819;SDS011;2424;49.696;6.630;2024-01-30T05:25:01;2.00;;;1.90;;
4819;SDS011;2424;49.696;6.630;2024-01-30T05:30:23;2.27;;;2.07;;
4819;SDS011;2424;49.696;6.630;2024-01-30T05:35:47;3.30;;;2.40;;
4819;SDS011;2424;49.696;6.630;2024-01-30T05:41:09;2.90;;;2.70;;
4819;SDS011;2424;49.696;6.630;2024-01-30T05:46:31;1.40;;;1.17;;
4819;SDS011;2424;49.696;6.630;2024-01-30T05:51:54;2.50;;;2.40;;
4819;SDS011;2424;49.696;6.630;2024-01-30T05:57:16;1.33;;;1.33;;
4819;SDS011;2424;49.696;6.630;2024-01-30T06:02:38;1.70;;;1.60;;
4819;SDS011;2424;49.696;6.630;2024-01-30T06:08:02;1.97;;;1.87;;
4819;SDS011;2424;49.696;6.630;2024-01-30T06:13:24;1.80;;;1.20;;
4819;SDS011;2424;49.696;6.630;2024-01-30T06:18:45;1.87;;;1.50;;
4819;SDS011;2424;49.696;6.630;2024-01-30T06:24:09;1.97;;;1.87;;
4819;SDS011;2424;49.696;6.630;2024-01-30T06:29:31;2.00;;;1.53;;
4819;SDS011;2424;49.696;6.630;2024-01-30T06:34:52;1.87;;;1.77;;
4819;SDS011;2424;49.696;6.630;2024-01-30T06:40:16;4.60;;;1.80;;
4819;SDS011;2424;49.696;6.630;2024-01-30T06:45:38;2.03;;;1.27;;
4819;SDS011;2424;49.696;6.630;2024-01-30T06:51:00;2.30;;;2.10;;
4819;SDS011;2424;49.696;6.630;2024-01-30T06:56:23;2.03;;;1.93;;
4819;SDS011;2424;49.696;6.630;2024-01-30T07:01:45;2.00;;;1.90;;
4819;SDS011;2424;49.696;6.630;2024-01-30T07:07:07;1.43;;;1.30;;
4819;SDS011;2424;49.696;6.630;2024-01-30T07:12:34;2.30;;;2.20;;
4819;SDS011;2424;49.696;6.630;2024-01-30T07:17:56;2.50;;;1.87;;
4819;SDS011;2424;49.696;6.630;2024-01-30T07:23:17;3.63;;;2.20;;
4819;SDS011;2424;49.696;6.630;2024-01-30T07:28:42;2.17;;;2.03;;
4819;SDS011;2424;49.696;6.630;2024-01-30T07:34:04;2.13;;;2.00;;
4819;SDS011;2424;49.696;6.630;2024-01-30T07:39:26;1.87;;;1.83;;
4819;SDS011;2424;49.696;6.630;2024-01-30T07:44:49;2.10;;;1.53;;
4819;SDS011;2424;49.696;6.630;2024-01-30T07:50:11;1.97;;;1.87;;
4819;SDS011;2424;49.696;6.630;2024-01-30T07:55:34;0.87;;;0.87;;
4819;SDS011;2424;49.696;6.630;2024-01-30T08:00:57;2.40;;;2.20;;
4819;SDS011;2424;49.696;6.630;2024-01-30T08:06:20;2.97;;;2.33;;
4819;SDS011;2424;49.696;6.630;2024-01-30T08:11:42;1.80;;;1.70;;
4819;SDS011;2424;49.696;6.630;2024-01-30T08:17:05;3.17;;;1.77;;
4819;SDS011;2424;49.696;6.630;2024-01-30T08:22:27;2.87;;;2.33;;
4819;SDS011;2424;49.696;6.630;2024-01-30T08:27:49;2.90;;;2.10;;
4819;SDS011;2424;49.696;6.630;2024-01-30T08:33:12;3.77;;;2.63;;
4819;SDS011;2424;49.696;6.630;2024-01-30T08:38:34;2.70;;;1.63;;
4819;SDS011;2424;49.696;6.630;2024-01-30T08:43:56;1.50;;;1.40;;
4819;SDS011;2424;49.696;6.630;2024-01-30T08:49:19;4.37;;;3.50;;
4819;SDS011;2424;49.696;6.630;2024-01-30T08:54:41;12.10;;;6.80;;
4819;SDS011;2424;49.696;6.630;2024-01-30T09:00:04;9.23;;;6.67;;
4819;SDS011;2424;49.696;6.630;2024-01-30T09:05:30;4.70;;;3.33;;
4819;SDS011;2424;49.696;6.630;2024-01-30T09:10:52;3.60;;;2.70;;
4819;SDS011;2424;49.696;6.630;2024-01-30T09:16:15;4.30;;;3.83;;
4819;SDS011;2424;49.696;6.630;2024-01-30T09:21:38;5.27;;;3.97;;
4819;SDS011;2424;49.696;6.630;2024-01-30T09:27:00;3.80;;;3.53;;
4819;SDS011;2424;49.696;6.630;2024-01-30T09:32:22;2.80;;;2.60;;
4819;SDS011;2424;49.696;6.630;2024-01-30T09:37:45;2.87;;;2.60;;
4819;SDS011;2424;49.696;6.630;2024-01-30T09:43:08;5.67;;;4.40;;
4819;SDS011;2424;49.696;6.630;2024-01-30T09:48:32;5.53;;;4.37;;
4819;SDS011;2424;49.696;6.630;2024-01-30T09:53:57;10.00;;;4.27;;
4819;SDS011;2424;49.696;6.630;2024-01-30T09:59:19;5.70;;;3.97;;
4819;SDS011;2424;49.696;6.630;2024-01-30T10:04:41;7.97;;;3.43;;
4819;SDS011;2424;49.696;6.630;2024-01-30T10:10:04;3.93;;;3.63;;
4819;SDS011;2424;49.696;6.630;2024-01-30T10:15:27;11.53;;;4.90;;
4819;SDS011;2424;49.696;6.630;2024-01-30T10:20:49;3.80;;;3.47;;
4819;SDS011;2424;49.696;6.630;2024-01-30T10:26:15;3.93;;;3.63;;
4819;SDS011;2424;49.696;6.630;2024-01-30T10:31:37;3.87;;;3.57;;
4819;SDS011;2424;49.696;6.630;2024-01-30T10:37:00;4.20;;;3.73;;
4819;SDS011;2424;49.696;6.630;2024-01-30T10:42:33;2.40;;;2.17;;
4819;SDS011;2424;49.696;6.630;2024-01-30T10:47:58;2.80;;;2.60;;
4819;SDS011;2424;49.696;6.630;2024-01-30T10:53:21;3.60;;;3.27;;
4819;SDS011;2424;49.696;6.630;2024-01-30T10:58:45;2.40;;;1.97;;
4819;SDS011;2424;49.696;6.630;2024-01-30T11:04:07;2.70;;;2.50;;
4819;SDS011;2424;49.696;6.630;2024-01-30T11:09:29;1.80;;;1.70;;
4819;SDS011;2424;49.696;6.630;2024-01-30T11:15:02;1.77;;;1.63;;
4819;SDS011;2424;49.696;6.630;2024-01-30T11:20:26;1.77;;;1.20;;
4819;SDS011;2424;49.696;6.630;2024-01-30T11:25:52;1.93;;;1.83;;
4819;SDS011;2424;49.696;6.630;2024-01-30T11:31:15;2.30;;;2.10;;
4819;SDS011;2424;49.696;6.630;2024-01-30T11:36:40;1.67;;;1.57;;
4819;SDS011;2424;49.696;6.630;2024-01-30T11:42:06;3.13;;;2.23;;
4819;SDS011;2424;49.696;6.630;2024-01-30T11:47:31;3.13;;;2.33;;
4819;SDS011;2424;49.696;6.630;2024-01-30T11:52:55;2.23;;;1.83;;
4819;SDS011;2424;49.696;6.630;2024-01-30T11:58:17;2.30;;;2.20;;
4819;SDS011;2424;49.696;6.630;2024-01-30T12:03:41;3.80;;;2.20;;
4819;SDS011;2424;49.696;6.630;2024-01-30T12:09:03;4.07;;;2.73;;
4819;SDS011;2424;49.696;6.630;2024-01-30T12:14:26;3.43;;;3.20;;
4819;SDS011;2424;49.696;6.630;2024-01-30T12:19:49;1.90;;;1.80;;
4819;SDS011;2424;49.696;6.630;2024-01-30T12:25:12;10.07;;;1.70;;
4819;SDS011;2424;49.696;6.630;2024-01-30T12:30:34;2.37;;;1.83;;
4819;SDS011;2424;49.696;6.630;2024-01-30T12:35:57;3.17;;;2.40;;
4819;SDS011;2424;49.696;6.630;2024-01-30T12:41:22;1.60;;;1.50;;
4819;SDS011;2424;49.696;6.630;2024-01-30T12:46:48;3.10;;;2.67;;
4819;SDS011;2424;49.696;6.630;2024-01-30T12:52:11;2.13;;;1.97;;
4819;SDS011;2424;49.696;6.630;2024-01-30T12:57:34;3.23;;;2.77;;
4819;SDS011;2424;49.696;6.630;2024-01-30T13:02:56;2.70;;;2.50;;
4819;SDS011;2424;49.696;6.630;2024-01-30T13:08:19;2.30;;;2.10;;
4819;SDS011;2424;49.696;6.630;2024-01-30T13:13:41;3.83;;;3.23;;
4819;SDS011;2424;49.696;6.630;2024-01-30T13:19:03;7.23;;;2.27;;
4819;SDS011;2424;49.696;6.630;2024-01-30T13:24:26;2.50;;;2.17;;
4819;SDS011;2424;49.696;6.630;2024-01-30T13:29:48;4.17;;;3.50;;
4819;SDS011;2424;49.696;6.630;2024-01-30T13:35:10;2.63;;;2.40;;
4819;SDS011;2424;49.696;6.630;2024-01-30T13:40:34;1.53;;;1.43;;
4819;SDS011;2424;49.696;6.630;2024-01-30T13:45:56;2.07;;;1.97;;
4819;SDS011;2424;49.696;6.630;2024-01-30T13:51:19;3.73;;;3.43;;
4819;SDS011;2424;49.696;6.630;2024-01-30T13:56:42;2.60;;;2.50;;
4819;SDS011;2424;49.696;6.630;2024-01-30T14:02:04;3.33;;;2.57;;
4819;SDS011;2424;49.696;6.630;2024-01-30T14:07:28;2.43;;;2.27;;
4819;SDS011;2424;49.696;6.630;2024-01-30T14:12:51;2.77;;;1.83;;
4819;SDS011;2424;49.696;6.630;2024-01-30T14:18:13;2.43;;;2.27;;
4819;SDS011;2424;49.696;6.630;2024-01-30T14:23:36;3.97;;;3.33;;
4819;SDS011;2424;49.696;6.630;2024-01-30T14:28:59;3.60;;;3.30;;
4819;SDS011;2424;49.696;6.630;2024-01-30T14:34:21;6.10;;;3.40;;
4819;SDS011;2424;49.696;6.630;2024-01-30T14:39:43;4.23;;;3.57;;
4819;SDS011;2424;49.696;6.630;2024-01-30T14:45:06;4.23;;;2.00;;
4819;SDS011;2424;49.696;6.630;2024-01-30T14:50:29;2.73;;;2.43;;
4819;SDS011;2424;49.696;6.630;2024-01-30T14:55:51;2.00;;;1.80;;
4819;SDS011;2424;49.696;6.630;2024-01-30T15:01:14;3.60;;;2.87;;
4819;SDS011;2424;49.696;6.630;2024-01-30T15:06:36;2.63;;;2.50;;
4819;SDS011;2424;49.696;6.630;2024-01-30T15:11:58;2.97;;;2.77;;
4819;SDS011;2424;49.696;6.630;2024-01-30T15:17:22;4.90;;;3.50;;
4819;SDS011;2424;49.696;6.630;2024-01-30T15:22:44;4.00;;;2.90;;
4819;SDS011;2424;49.696;6.630;2024-01-30T15:28:06;7.57;;;4.17;;
4819;SDS011;2424;49.696;6.630;2024-01-30T15:33:31;5.07;;;4.00;;
4819;SDS011;2424;49.696;6.630;2024-01-30T15:38:53;2.10;;;1.93;;
4819;SDS011;2424;49.696;6.630;2024-01-30T15:44:15;5.83;;;4.47;;
4819;SDS011;2424;49.696;6.630;2024-01-30T15:49:39;5.60;;;4.17;;
4819;SDS011;2424;49.696;6.630;2024-01-30T15:55:01;2.30;;;2.10;;
4819;SDS011;2424;49.696;6.630;2024-01-30T16:00:23;4.03;;;3.63;;
4819;SDS011;2424;49.696;6.630;2024-01-30T16:05:46;4.57;;;3.73;;
4819;SDS011;2424;49.696;6.630;2024-01-30T16:11:08;7.10;;;4.33;;
4819;SDS011;2424;49.696;6.630;2024-01-30T16:16:30;3.77;;;3.50;;
4819;SDS011;2424;49.696;6.630;2024-01-30T16:21:53;5.03;;;4.13;;
4819;SDS011;2424;49.696;6.630;2024-01-30T16:27:15;3.27;;;3.00;;
4819;SDS011;2424;49.696;6.630;2024-01-30T16:32:37;6.67;;;4.27;;
4819;SDS011;2424;49.696;6.630;2024-01-30T16:38:00;7.47;;;4.57;;
4819;SDS011;2424;49.696;6.630;2024-01-30T16:43:22;6.73;;;3.60;;
4819;SDS011;2424;49.696;6.630;2024-01-30T16:48:44;4.57;;;3.20;;
4819;SDS011;2424;49.696;6.630;2024-01-30T16:54:08;7.80;;;4.87;;
4819;SDS011;2424;49.696;6.630;2024-01-30T16:59:29;2.73;;;2.53;;
4819;SDS011;2424;49.696;6.630;2024-01-30T17:04:51;3.47;;;3.17;;
4819;SDS011;2424;49.696;6.630;2024-01-30T17:10:15;4.40;;;2.97;;
4819;SDS011;2424;49.696;6.630;2024-01-30T17:15:38;5.57;;;2.23;;
4819;SDS011;2424;49.696;6.630;2024-01-30T17:20:59;5.33;;;3.70;;
4819;SDS011;2424;49.696;6.630;2024-01-30T17:26:23;3.27;;;3.07;;
4819;SDS011;2424;49.696;6.630;2024-01-30T17:31:45;3.23;;;2.87;;
4819;SDS011;2424;49.696;6.630;2024-01-30T17:37:07;7.23;;;2.67;;
4819;SDS011;2424;49.696;6.630;2024-01-30T17:42:31;5.80;;;3.80;;
4819;SDS011;2424;49.696;6.630;2024-01-30T17:47:53;4.53;;;3.40;;
4819;SDS011;2424;49.696;6.630;2024-01-30T17:53:15;3.97;;;2.70;;
4819;SDS011;2424;49.696;6.630;2024-01-30T17:58:38;3.20;;;3.00;;
4819;SDS011;2424;49.696;6.630;2024-01-30T18:04:01;2.70;;;2.50;;
4819;SDS011;2424;49.696;6.630;2024-01-30T18:09:23;3.47;;;2.83;;
4819;SDS011;2424;49.696;6.630;2024-01-30T18:14:47;8.80;;;7.57;;
4819;SDS011;2424;49.696;6.630;2024-01-30T18:20:09;8.50;;;4.20;;
4819;SDS011;2424;49.696;6.630;2024-01-30T18:25:31;4.00;;;3.70;;
4819;SDS011;2424;49.696;6.630;2024-01-30T18:30:54;2.97;;;2.70;;
4819;SDS011;2424;49.696;6.630;2024-01-30T18:36:17;4.27;;;3.60;;
4819;SDS011;2424;49.696;6.630;2024-01-30T18:41:39;5.90;;;4.73;;
4819;SDS011;2424;49.696;6.630;2024-01-30T18:47:03;5.50;;;4.50;;
4819;SDS011;2424;49.696;6.630;2024-01-30T18:52:25;3.83;;;3.30;;
4819;SDS011;2424;49.696;6.630;2024-01-30T18:57:47;6.67;;;4.80;;
4819;SDS011;2424;49.696;6.630;2024-01-30T19:03:10;4.63;;;4.00;;
4819;SDS011;2424;49.696;6.630;2024-01-30T19:08:32;5.70;;;4.40;;
4819;SDS011;2424;49.696;6.630;2024-01-30T19:13:54;6.57;;;4.37;;
4819;SDS011;2424;49.696;6.630;2024-01-30T19:19:17;7.83;;;4.80;;
4819;SDS011;2424;49.696;6.630;2024-01-30T19:24:39;8.50;;;5.23;;
4819;SDS011;2424;49.696;6.630;2024-01-30T19:30:01;9.20;;;6.57;;
4819;SDS011;2424;49.696;6.630;2024-01-30T19:35:25;12.20;;;6.60;;
4819;SDS011;2424;49.696;6.630;2024-01-30T19:40:46;5.73;;;4.50;;
4819;SDS011;2424;49.696;6.630;2024-01-30T19:46:10;7.67;;;5.97;;
4819;SDS011;2424;49.696;6.630;2024-01-30T19:51:34;6.80;;;5.67;;
4819;SDS011;2424;49.696;6.630;2024-01-30T19:56:55;5.83;;;4.30;;
4819;SDS011;2424;49.696;6.630;2024-01-30T20:02:17;6.00;;;4.57;;
4819;SDS011;2424;49.696;6.630;2024-01-30T20:07:43;6.13;;;5.30;;
4819;SDS011;2424;49.696;6.630;2024-01-30T20:13:04;11.20;;;7.57;;
4819;SDS011;2424;49.696;6.630;2024-01-30T20:18:26;7.30;;;4.83;;
4819;SDS011;2424;49.696;6.630;2024-01-30T20:23:51;8.40;;;5.07;;
4819;SDS011;2424;49.696;6.630;2024-01-30T20:29:13;5.53;;;4.93;;
4819;SDS011;2424;49.696;6.630;2024-01-30T20:34:35;6.53;;;4.20;;
4819;SDS011;2424;49.696;6.630;2024-01-30T20:39:58;7.90;;;5.27;;
4819;SDS011;2424;49.696;6.630;2024-01-30T20:45:20;8.60;;;4.60;;
4819;SDS011;2424;49.696;6.630;2024-01-30T20:50:42;4.87;;;4.40;;
4819;SDS011;2424;49.696;6.630;2024-01-30T20:56:06;4.80;;;3.83;;
4819;SDS011;2424;49.696;6.630;2024-01-30T21:01:28;3.23;;;2.70;;
4819;SDS011;2424;49.696;6.630;2024-01-30T21:06:50;1.70;;;1.60;;
4819;SDS011;2424;49.696;6.630;2024-01-30T21:12:13;2.07;;;1.97;;
4819;SDS011;2424;49.696;6.630;2024-01-30T21:17:35;2.87;;;2.30;;
4819;SDS011;2424;49.696;6.630;2024-01-30T21:22:57;3.70;;;2.40;;
4819;SDS011;2424;49.696;6.630;2024-01-30T21:28:20;2.00;;;1.90;;
4819;SDS011;2424;49.696;6.630;2024-01-30T21:33:43;2.03;;;1.87;;
4819;SDS011;2424;49.696;6.630;2024-01-30T21:39:05;2.07;;;1.87;;
4819;SDS011;2424;49.696;6.630;2024-01-30T21:44:28;3.27;;;2.70;;
4819;SDS011;2424;49.696;6.630;2024-01-30T21:49:50;2.53;;;2.03;;
4819;SDS011;2424;49.696;6.630;2024-01-30T21:55:12;2.03;;;1.90;;
4819;SDS011;2424;49.696;6.630;2024-01-30T22:00:36;6.00;;;2.33;;
4819;SDS011;2424;49.696;6.630;2024-01-30T22:05:58;2.50;;;2.30;;
4819;SDS011;2424;49.696;6.630;2024-01-30T22:11:20;1.93;;;1.83;;
4819;SDS011;2424;49.696;6.630;2024-01-30T22:16:43;1.00;;;1.00;;
4819;SDS011;2424;49.696;6.630;2024-01-30T22:22:05;0.90;;;0.90;;
4819;SDS011;2424;49.696;6.630;2024-01-30T22:27:27;1.83;;;1.63;;
4819;SDS011;2424;49.696;6.630;2024-01-30T22:32:50;1.27;;;1.27;;
4819;SDS011;2424;49.696;6.630;2024-01-30T22:38:12;0.70;;;0.70;;
4819;SDS011;2424;49.696;6.630;2024-01-30T22:43:34;0.87;;;0.87;;
4819;SDS011;2424;49.696;6.630;2024-01-30T22:48:58;0.90;;;0.90;;
4819;SDS011;2424;49.696;6.630;2024-01-30T22:54:19;2.47;;;1.00;;
4819;SDS011;2424;49.696;6.630;2024-01-30T22:59:41;0.60;;;0.60;;
4819;SDS011;2424;49.696;6.630;2024-01-30T23:05:05;0.90;;;0.90;;
4819;SDS011;2424;49.696;6.630;2024-01-30T23:10:27;2.20;;;1.03;;
4819;SDS011;2424;49.696;6.630;2024-01-30T23:15:49;0.30;;;0.30;;
4819;SDS011;2424;49.696;6.630;2024-01-30T23:21:12;0.97;;;0.50;;
4819;SDS011;2424;49.696;6.630;2024-01-30T23:26:34;0.60;;;0.60;;
4819;SDS011;2424;49.696;6.630;2024-01-30T23:31:59;0.40;;;0.40;;
4819;SDS011;2424;49.696;6.630;2024-01-30T23:37:23;0.93;;;0.37;;
4819;SDS011;2424;49.696;6.630;2024-01-30T23:42:45;2.00;;;0.60;;
4819;SDS011;2424;49.696;6.630;2024-01-30T23:48:07;0.63;;;0.63;;
4819;SDS011;2424;49.696;6.630;2024-01-30T23:53:30;1.57;;;0.50;;
4819;SDS011;2424;49.696;6.630;2024-01-30T23:58:54;0.77;;;0.77;;
